sensor_id;sensor_type;location;lat;lon;timestamp;temperature;humidity
76785;SHT30;66893;44.316;0.092;2023-05-07T00:01:06;23.98;53.60
76785;SHT30;66893;44.316;0.092;2023-05-07T00:03:32;23.96;53.66
76785;SHT30;66893;44.316;0.092;2023-05-07T00:05:58;23.94;53.68
76785;SHT30;66893;44.316;0.092;2023-05-07T00:08:23;23.93;53.77
76785;SHT30;66893;44.316;0.092;2023-05-07T00:10:49;23.90;53.74
76785;SHT30;66893;44.316;0.092;2023-05-07T00:13:14;23.88;53.81
76785;SHT30;66893;44.316;0.092;2023-05-07T00:15:40;23.90;53.77
76785;SHT30;66893;44.316;0.092;2023-05-07T00:18:06;23.85;53.91
76785;SHT30;66893;44.316;0.092;2023-05-07T00:20:31;23.85;53.87
76785;SHT30;66893;44.316;0.092;2023-05-07T00:22:57;23.84;53.95
76785;SHT30;66893;44.316;0.092;2023-05-07T00:25:22;23.80;53.91
76785;SHT30;66893;44.316;0.092;2023-05-07T00:27:48;23.80;53.90
76785;SHT30;66893;44.316;0.092;2023-05-07T00:30:13;23.77;53.92
76785;SHT30;66893;44.316;0.092;2023-05-07T00:32:39;23.74;54.00
76785;SHT30;66893;44.316;0.092;2023-05-07T00:35:06;23.73;54.01
76785;SHT30;66893;44.316;0.092;2023-05-07T00:37:31;23.73;54.03
76785;SHT30;66893;44.316;0.092;2023-05-07T00:39:57;23.69;54.08
76785;SHT30;66893;44.316;0.092;2023-05-07T00:42:22;23.70;54.06
76785;SHT30;66893;44.316;0.092;2023-05-07T00:44:48;23.67;54.11
76785;SHT30;66893;44.316;0.092;2023-05-07T00:47:14;23.66;54.16
76785;SHT30;66893;44.316;0.092;2023-05-07T00:49:44;23.64;54.20
76785;SHT30;66893;44.316;0.092;2023-05-07T00:52:16;23.63;54.19
76785;SHT30;66893;44.316;0.092;2023-05-07T00:54:42;23.62;54.24
76785;SHT30;66893;44.316;0.092;2023-05-07T00:57:09;23.62;54.24
76785;SHT30;66893;44.316;0.092;2023-05-07T00:59:35;23.59;54.29
76785;SHT30;66893;44.316;0.092;2023-05-07T01:02:01;23.56;54.29
76785;SHT30;66893;44.316;0.092;2023-05-07T01:04:26;23.56;54.32
76785;SHT30;66893;44.316;0.092;2023-05-07T01:06:56;23.53;54.33
76785;SHT30;66893;44.316;0.092;2023-05-07T01:09:24;23.52;54.38
76785;SHT30;66893;44.316;0.092;2023-05-07T01:11:50;23.53;54.38
76785;SHT30;66893;44.316;0.092;2023-05-07T01:14:17;23.50;54.40
76785;SHT30;66893;44.316;0.092;2023-05-07T01:16:43;23.49;54.43
76785;SHT30;66893;44.316;0.092;2023-05-07T01:19:11;23.49;54.46
76785;SHT30;66893;44.316;0.092;2023-05-07T01:21:43;23.49;54.44
76785;SHT30;66893;44.316;0.092;2023-05-07T01:24:10;23.46;54.46
76785;SHT30;66893;44.316;0.092;2023-05-07T01:26:36;23.46;54.48
76785;SHT30;66893;44.316;0.092;2023-05-07T01:29:02;23.43;54.53
76785;SHT30;66893;44.316;0.092;2023-05-07T01:31:27;23.43;54.53
76785;SHT30;66893;44.316;0.092;2023-05-07T01:33:54;23.43;54.57
76785;SHT30;66893;44.316;0.092;2023-05-07T01:36:22;23.41;54.54
76785;SHT30;66893;44.316;0.092;2023-05-07T01:38:52;23.39;54.58
76785;SHT30;66893;44.316;0.092;2023-05-07T01:41:19;23.38;54.66
76785;SHT30;66893;44.316;0.092;2023-05-07T01:43:45;23.38;54.67
76785;SHT30;66893;44.316;0.092;2023-05-07T01:46:12;23.36;54.64
76785;SHT30;66893;44.316;0.092;2023-05-07T01:48:38;23.33;54.73
76785;SHT30;66893;44.316;0.092;2023-05-07T01:51:05;23.33;54.72
76785;SHT30;66893;44.316;0.092;2023-05-07T01:53:38;23.33;54.67
76785;SHT30;66893;44.316;0.092;2023-05-07T01:56:04;23.29;54.75
76785;SHT30;66893;44.316;0.092;2023-05-07T01:58:30;23.30;54.76
76785;SHT30;66893;44.316;0.092;2023-05-07T02:00:55;23.29;54.79
76785;SHT30;66893;44.316;0.092;2023-05-07T02:03:21;23.29;54.79
76785;SHT30;66893;44.316;0.092;2023-05-07T02:05:46;23.26;54.80
76785;SHT30;66893;44.316;0.092;2023-05-07T02:08:11;23.26;54.87
76785;SHT30;66893;44.316;0.092;2023-05-07T02:10:37;23.23;54.86
76785;SHT30;66893;44.316;0.092;2023-05-07T02:13:02;23.22;54.95
76785;SHT30;66893;44.316;0.092;2023-05-07T02:15:28;23.23;54.87
76785;SHT30;66893;44.316;0.092;2023-05-07T02:18:04;23.20;54.87
76785;SHT30;66893;44.316;0.092;2023-05-07T02:20:31;23.18;54.96
76785;SHT30;66893;44.316;0.092;2023-05-07T02:22:56;23.19;54.98
76785;SHT30;66893;44.316;0.092;2023-05-07T02:25:22;23.18;54.92
76785;SHT30;66893;44.316;0.092;2023-05-07T02:27:47;23.15;55.00
76785;SHT30;66893;44.316;0.092;2023-05-07T02:30:13;23.15;55.01
76785;SHT30;66893;44.316;0.092;2023-05-07T02:32:39;23.15;55.01
76785;SHT30;66893;44.316;0.092;2023-05-07T02:35:05;23.14;55.00
76785;SHT30;66893;44.316;0.092;2023-05-07T02:37:31;23.11;55.03
76785;SHT30;66893;44.316;0.092;2023-05-07T02:39:56;23.14;55.03
76785;SHT30;66893;44.316;0.092;2023-05-07T02:42:22;23.08;55.06
76785;SHT30;66893;44.316;0.092;2023-05-07T02:44:47;23.11;55.06
76785;SHT30;66893;44.316;0.092;2023-05-07T02:47:14;23.07;55.05
76785;SHT30;66893;44.316;0.092;2023-05-07T02:49:40;23.05;55.06
76785;SHT30;66893;44.316;0.092;2023-05-07T02:52:06;23.04;55.12
76785;SHT30;66893;44.316;0.092;2023-05-07T02:54:31;23.04;55.12
76785;SHT30;66893;44.316;0.092;2023-05-07T02:56:57;23.01;55.12
76785;SHT30;66893;44.316;0.092;2023-05-07T02:59:23;23.02;55.16
76785;SHT30;66893;44.316;0.092;2023-05-07T03:01:49;23.02;55.11
76785;SHT30;66893;44.316;0.092;2023-05-07T03:04:14;22.99;55.14
76785;SHT30;66893;44.316;0.092;2023-05-07T03:06:40;22.98;55.19
76785;SHT30;66893;44.316;0.092;2023-05-07T03:09:07;22.95;55.18
76785;SHT30;66893;44.316;0.092;2023-05-07T03:11:32;22.95;55.14
76785;SHT30;66893;44.316;0.092;2023-05-07T03:13:58;22.92;55.21
76785;SHT30;66893;44.316;0.092;2023-05-07T03:16:23;22.92;55.20
76785;SHT30;66893;44.316;0.092;2023-05-07T03:18:48;22.88;55.20
76785;SHT30;66893;44.316;0.092;2023-05-07T03:21:14;22.90;55.22
76785;SHT30;66893;44.316;0.092;2023-05-07T03:23:39;22.88;55.23
76785;SHT30;66893;44.316;0.092;2023-05-07T03:26:05;22.86;55.24
76785;SHT30;66893;44.316;0.092;2023-05-07T03:28:30;22.86;55.24
76785;SHT30;66893;44.316;0.092;2023-05-07T03:30:56;22.84;55.29
76785;SHT30;66893;44.316;0.092;2023-05-07T03:33:21;22.83;55.25
76785;SHT30;66893;44.316;0.092;2023-05-07T03:35:47;22.83;55.25
76785;SHT30;66893;44.316;0.092;2023-05-07T03:38:12;22.81;55.31
76785;SHT30;66893;44.316;0.092;2023-05-07T03:40:38;22.78;55.33
76785;SHT30;66893;44.316;0.092;2023-05-07T03:43:03;22.78;55.35
76785;SHT30;66893;44.316;0.092;2023-05-07T03:45:28;22.77;55.31
76785;SHT30;66893;44.316;0.092;2023-05-07T03:47:54;22.74;55.31
76785;SHT30;66893;44.316;0.092;2023-05-07T03:50:19;22.74;55.38
76785;SHT30;66893;44.316;0.092;2023-05-07T03:52:45;22.74;55.41
76785;SHT30;66893;44.316;0.092;2023-05-07T03:55:11;22.71;55.46
76785;SHT30;66893;44.316;0.092;2023-05-07T03:57:36;22.70;55.48
76785;SHT30;66893;44.316;0.092;2023-05-07T04:00:02;22.68;55.49
76785;SHT30;66893;44.316;0.092;2023-05-07T04:02:28;22.70;55.50
76785;SHT30;66893;44.316;0.092;2023-05-07T04:04:54;22.67;55.55
76785;SHT30;66893;44.316;0.092;2023-05-07T04:07:19;22.67;55.53
76785;SHT30;66893;44.316;0.092;2023-05-07T04:09:45;22.70;55.50
76785;SHT30;66893;44.316;0.092;2023-05-07T04:12:10;22.67;55.59
76785;SHT30;66893;44.316;0.092;2023-05-07T04:14:36;22.65;55.60
76785;SHT30;66893;44.316;0.092;2023-05-07T04:17:01;22.63;55.66
76785;SHT30;66893;44.316;0.092;2023-05-07T04:19:27;22.65;55.66
76785;SHT30;66893;44.316;0.092;2023-05-07T04:21:53;22.63;55.67
76785;SHT30;66893;44.316;0.092;2023-05-07T04:24:18;22.63;55.67
76785;SHT30;66893;44.316;0.092;2023-05-07T04:26:44;22.61;55.65
76785;SHT30;66893;44.316;0.092;2023-05-07T04:29:09;22.60;55.71
76785;SHT30;66893;44.316;0.092;2023-05-07T04:31:35;22.59;55.72
76785;SHT30;66893;44.316;0.092;2023-05-07T04:34:00;22.59;55.71
76785;SHT30;66893;44.316;0.092;2023-05-07T04:36:26;22.56;55.74
76785;SHT30;66893;44.316;0.092;2023-05-07T04:38:53;22.56;55.76
76785;SHT30;66893;44.316;0.092;2023-05-07T04:41:19;22.56;55.79
76785;SHT30;66893;44.316;0.092;2023-05-07T04:43:44;22.53;55.84
76785;SHT30;66893;44.316;0.092;2023-05-07T04:46:10;22.53;55.81
76785;SHT30;66893;44.316;0.092;2023-05-07T04:48:35;22.53;55.82
76785;SHT30;66893;44.316;0.092;2023-05-07T04:51:01;22.50;55.84
76785;SHT30;66893;44.316;0.092;2023-05-07T04:53:26;22.52;55.91
76785;SHT30;66893;44.316;0.092;2023-05-07T04:55:58;22.50;55.94
76785;SHT30;66893;44.316;0.092;2023-05-07T04:58:23;22.49;55.95
76785;SHT30;66893;44.316;0.092;2023-05-07T05:00:49;22.49;55.97
76785;SHT30;66893;44.316;0.092;2023-05-07T05:03:15;22.47;56.02
76785;SHT30;66893;44.316;0.092;2023-05-07T05:05:40;22.49;56.04
76785;SHT30;66893;44.316;0.092;2023-05-07T05:08:06;22.47;56.03
76785;SHT30;66893;44.316;0.092;2023-05-07T05:10:31;22.49;56.07
76785;SHT30;66893;44.316;0.092;2023-05-07T05:12:57;22.47;56.07
76785;SHT30;66893;44.316;0.092;2023-05-07T05:15:22;22.44;56.05
76785;SHT30;66893;44.316;0.092;2023-05-07T05:17:48;22.46;56.11
76785;SHT30;66893;44.316;0.092;2023-05-07T05:20:13;22.46;56.08
76785;SHT30;66893;44.316;0.092;2023-05-07T05:22:41;22.46;56.07
76785;SHT30;66893;44.316;0.092;2023-05-07T05:25:07;22.47;56.16
76785;SHT30;66893;44.316;0.092;2023-05-07T05:27:32;22.46;56.17
76785;SHT30;66893;44.316;0.092;2023-05-07T05:29:58;22.46;56.18
76785;SHT30;66893;44.316;0.092;2023-05-07T05:32:23;22.47;56.13
76785;SHT30;66893;44.316;0.092;2023-05-07T05:34:49;22.47;56.18
76785;SHT30;66893;44.316;0.092;2023-05-07T05:37:14;22.46;56.17
76785;SHT30;66893;44.316;0.092;2023-05-07T05:39:40;22.44;56.21
76785;SHT30;66893;44.316;0.092;2023-05-07T05:42:05;22.46;56.22
76785;SHT30;66893;44.316;0.092;2023-05-07T05:44:31;22.44;56.19
76785;SHT30;66893;44.316;0.092;2023-05-07T05:46:56;22.46;56.23
76785;SHT30;66893;44.316;0.092;2023-05-07T05:49:24;22.44;56.25
76785;SHT30;66893;44.316;0.092;2023-05-07T05:51:50;22.44;56.28
76785;SHT30;66893;44.316;0.092;2023-05-07T05:54:15;22.46;56.29
76785;SHT30;66893;44.316;0.092;2023-05-07T05:56:41;22.46;56.30
76785;SHT30;66893;44.316;0.092;2023-05-07T05:59:07;22.46;56.32
76785;SHT30;66893;44.316;0.092;2023-05-07T06:01:32;22.50;56.31
76785;SHT30;66893;44.316;0.092;2023-05-07T06:03:58;22.50;56.26
76785;SHT30;66893;44.316;0.092;2023-05-07T06:06:23;22.52;56.24
76785;SHT30;66893;44.316;0.092;2023-05-07T06:08:49;22.53;56.26
76785;SHT30;66893;44.316;0.092;2023-05-07T06:11:14;22.53;56.26
76785;SHT30;66893;44.316;0.092;2023-05-07T06:13:40;22.54;56.27
76785;SHT30;66893;44.316;0.092;2023-05-07T06:16:06;22.54;56.29
76785;SHT30;66893;44.316;0.092;2023-05-07T06:18:31;22.57;56.31
76785;SHT30;66893;44.316;0.092;2023-05-07T06:20:57;22.57;56.27
76785;SHT30;66893;44.316;0.092;2023-05-07T06:23:22;22.59;56.28
76785;SHT30;66893;44.316;0.092;2023-05-07T06:25:51;22.59;56.36
76785;SHT30;66893;44.316;0.092;2023-05-07T06:28:17;22.56;56.54
76785;SHT30;66893;44.316;0.092;2023-05-07T06:30:42;22.49;56.68
76785;SHT30;66893;44.316;0.092;2023-05-07T06:33:08;22.42;56.91
76785;SHT30;66893;44.316;0.092;2023-05-07T06:35:33;22.35;57.06
76785;SHT30;66893;44.316;0.092;2023-05-07T06:37:59;22.26;57.15
76785;SHT30;66893;44.316;0.092;2023-05-07T06:40:25;22.19;57.27
76785;SHT30;66893;44.316;0.092;2023-05-07T06:42:51;22.10;57.49
76785;SHT30;66893;44.316;0.092;2023-05-07T06:45:16;22.02;57.77
76785;SHT30;66893;44.316;0.092;2023-05-07T06:47:42;21.95;57.93
76785;SHT30;66893;44.316;0.092;2023-05-07T06:50:07;21.89;58.02
76785;SHT30;66893;44.316;0.092;2023-05-07T06:52:33;21.84;58.07
76785;SHT30;66893;44.316;0.092;2023-05-07T06:54:59;21.80;58.14
76785;SHT30;66893;44.316;0.092;2023-05-07T06:57:25;21.75;58.25
76785;SHT30;66893;44.316;0.092;2023-05-07T06:59:50;21.77;58.59
76785;SHT30;66893;44.316;0.092;2023-05-07T07:02:16;21.71;58.36
76785;SHT30;66893;44.316;0.092;2023-05-07T07:04:41;21.70;58.40
76785;SHT30;66893;44.316;0.092;2023-05-07T07:07:07;21.64;58.65
76785;SHT30;66893;44.316;0.092;2023-05-07T07:09:33;21.60;58.84
76785;SHT30;66893;44.316;0.092;2023-05-07T07:11:58;21.61;58.99
76785;SHT30;66893;44.316;0.092;2023-05-07T07:14:24;21.58;58.79
76785;SHT30;66893;44.316;0.092;2023-05-07T07:16:49;21.57;58.93
76785;SHT30;66893;44.316;0.092;2023-05-07T07:19:15;21.53;58.92
76785;SHT30;66893;44.316;0.092;2023-05-07T07:21:41;21.53;59.11
76785;SHT30;66893;44.316;0.092;2023-05-07T07:24:07;21.54;59.04
76785;SHT30;66893;44.316;0.092;2023-05-07T07:26:32;21.51;58.79
76785;SHT30;66893;44.316;0.092;2023-05-07T07:28:58;21.51;59.01
76785;SHT30;66893;44.316;0.092;2023-05-07T07:31:23;21.54;59.12
76785;SHT30;66893;44.316;0.092;2023-05-07T07:33:48;21.55;58.85
76785;SHT30;66893;44.316;0.092;2023-05-07T07:36:15;21.57;59.09
76785;SHT30;66893;44.316;0.092;2023-05-07T07:38:41;21.55;59.26
76785;SHT30;66893;44.316;0.092;2023-05-07T07:41:08;21.57;59.32
76785;SHT30;66893;44.316;0.092;2023-05-07T07:43:33;21.57;59.16
76785;SHT30;66893;44.316;0.092;2023-05-07T07:45:58;21.55;59.23
76785;SHT30;66893;44.316;0.092;2023-05-07T07:48:24;21.57;59.09
76785;SHT30;66893;44.316;0.092;2023-05-07T07:50:50;21.53;59.32
76785;SHT30;66893;44.316;0.092;2023-05-07T07:53:18;21.54;59.33
76785;SHT30;66893;44.316;0.092;2023-05-07T07:55:44;21.55;59.57
76785;SHT30;66893;44.316;0.092;2023-05-07T07:58:10;21.60;59.41
76785;SHT30;66893;44.316;0.092;2023-05-07T08:00:36;21.60;59.41
76785;SHT30;66893;44.316;0.092;2023-05-07T08:03:01;21.64;59.42
76785;SHT30;66893;44.316;0.092;2023-05-07T08:05:28;21.64;59.34
76785;SHT30;66893;44.316;0.092;2023-05-07T08:07:54;21.67;59.48
76785;SHT30;66893;44.316;0.092;2023-05-07T08:10:19;21.70;59.42
76785;SHT30;66893;44.316;0.092;2023-05-07T08:12:48;21.70;59.40
76785;SHT30;66893;44.316;0.092;2023-05-07T08:15:14;21.77;59.35
76785;SHT30;66893;44.316;0.092;2023-05-07T08:17:40;21.80;59.21
76785;SHT30;66893;44.316;0.092;2023-05-07T08:20:06;21.81;59.42
76785;SHT30;66893;44.316;0.092;2023-05-07T08:22:32;21.84;59.22
76785;SHT30;66893;44.316;0.092;2023-05-07T08:24:57;21.91;59.04
76785;SHT30;66893;44.316;0.092;2023-05-07T08:27:22;21.94;58.94
76785;SHT30;66893;44.316;0.092;2023-05-07T08:29:48;21.92;58.91
76785;SHT30;66893;44.316;0.092;2023-05-07T08:32:14;21.91;59.14
76785;SHT30;66893;44.316;0.092;2023-05-07T08:34:40;21.95;59.12
76785;SHT30;66893;44.316;0.092;2023-05-07T08:37:05;22.01;59.05
76785;SHT30;66893;44.316;0.092;2023-05-07T08:39:30;22.06;59.02
76785;SHT30;66893;44.316;0.092;2023-05-07T08:41:57;22.12;58.66
76785;SHT30;66893;44.316;0.092;2023-05-07T08:44:26;22.16;58.60
76785;SHT30;66893;44.316;0.092;2023-05-07T08:46:53;22.15;58.52
76785;SHT30;66893;44.316;0.092;2023-05-07T08:49:20;22.19;58.26
76785;SHT30;66893;44.316;0.092;2023-05-07T08:51:46;22.22;58.07
76785;SHT30;66893;44.316;0.092;2023-05-07T08:54:11;22.28;57.98
76785;SHT30;66893;44.316;0.092;2023-05-07T08:56:41;22.35;58.02
76785;SHT30;66893;44.316;0.092;2023-05-07T08:59:06;22.43;57.86
76785;SHT30;66893;44.316;0.092;2023-05-07T09:01:32;22.49;57.64
76785;SHT30;66893;44.316;0.092;2023-05-07T09:03:57;22.49;57.66
76785;SHT30;66893;44.316;0.092;2023-05-07T09:06:23;22.53;57.59
76785;SHT30;66893;44.316;0.092;2023-05-07T09:08:50;22.52;57.56
76785;SHT30;66893;44.316;0.092;2023-05-07T09:11:16;22.54;57.47
76785;SHT30;66893;44.316;0.092;2023-05-07T09:13:42;22.53;57.22
76785;SHT30;66893;44.316;0.092;2023-05-07T09:16:12;22.57;57.09
76785;SHT30;66893;44.316;0.092;2023-05-07T09:18:41;22.59;57.00
76785;SHT30;66893;44.316;0.092;2023-05-07T09:21:09;22.59;56.71
76785;SHT30;66893;44.316;0.092;2023-05-07T09:23:35;22.65;56.73
76785;SHT30;66893;44.316;0.092;2023-05-07T09:26:00;22.72;56.95
76785;SHT30;66893;44.316;0.092;2023-05-07T09:28:27;22.80;56.74
76785;SHT30;66893;44.316;0.092;2023-05-07T09:30:52;22.80;56.62
76785;SHT30;66893;44.316;0.092;2023-05-07T09:33:17;22.75;56.66
76785;SHT30;66893;44.316;0.092;2023-05-07T09:35:43;22.74;56.51
76785;SHT30;66893;44.316;0.092;2023-05-07T09:38:08;22.70;56.57
76785;SHT30;66893;44.316;0.092;2023-05-07T09:40:34;22.67;56.56
76785;SHT30;66893;44.316;0.092;2023-05-07T09:43:10;22.70;56.51
76785;SHT30;66893;44.316;0.092;2023-05-07T09:45:36;22.70;56.57
76785;SHT30;66893;44.316;0.092;2023-05-07T09:48:05;22.78;56.38
76785;SHT30;66893;44.316;0.092;2023-05-07T09:50:36;22.86;56.36
76785;SHT30;66893;44.316;0.092;2023-05-07T09:53:03;22.94;56.01
76785;SHT30;66893;44.316;0.092;2023-05-07T09:55:29;23.01;55.80
76785;SHT30;66893;44.316;0.092;2023-05-07T09:57:55;23.07;55.94
76785;SHT30;66893;44.316;0.092;2023-05-07T10:00:21;23.08;56.12
76785;SHT30;66893;44.316;0.092;2023-05-07T10:02:49;23.16;56.03
76785;SHT30;66893;44.316;0.092;2023-05-07T10:05:16;23.23;55.85
76785;SHT30;66893;44.316;0.092;2023-05-07T10:07:42;23.32;55.73
76785;SHT30;66893;44.316;0.092;2023-05-07T10:10:09;23.38;55.28
76785;SHT30;66893;44.316;0.092;2023-05-07T10:12:35;23.47;55.25
76785;SHT30;66893;44.316;0.092;2023-05-07T10:15:07;23.53;55.21
76785;SHT30;66893;44.316;0.092;2023-05-07T10:17:37;23.57;55.15
76785;SHT30;66893;44.316;0.092;2023-05-07T10:20:04;23.63;54.82
76785;SHT30;66893;44.316;0.092;2023-05-07T10:22:38;23.62;54.83
76785;SHT30;66893;44.316;0.092;2023-05-07T10:25:06;23.59;54.55
76785;SHT30;66893;44.316;0.092;2023-05-07T10:27:34;23.62;54.91
76785;SHT30;66893;44.316;0.092;2023-05-07T10:32:50;23.73;54.56
76785;SHT30;66893;44.316;0.092;2023-05-07T10:35:40;23.80;54.45
76785;SHT30;66893;44.316;0.092;2023-05-07T10:38:06;23.91;54.28
76785;SHT30;66893;44.316;0.092;2023-05-07T10:40:32;23.94;54.31
76785;SHT30;66893;44.316;0.092;2023-05-07T10:43:00;23.98;54.28
76785;SHT30;66893;44.316;0.092;2023-05-07T10:45:27;24.02;54.26
76785;SHT30;66893;44.316;0.092;2023-05-07T10:48:13;24.02;54.20
76785;SHT30;66893;44.316;0.092;2023-05-07T10:50:40;24.02;54.13
76785;SHT30;66893;44.316;0.092;2023-05-07T10:58:45;24.04;54.15
76785;SHT30;66893;44.316;0.092;2023-05-07T11:01:10;24.08;53.93
76785;SHT30;66893;44.316;0.092;2023-05-07T11:04:13;24.09;53.79
76785;SHT30;66893;44.316;0.092;2023-05-07T11:06:40;24.14;53.70
76785;SHT30;66893;44.316;0.092;2023-05-07T11:09:05;24.11;53.84
76785;SHT30;66893;44.316;0.092;2023-05-07T11:11:50;24.14;53.85
76785;SHT30;66893;44.316;0.092;2023-05-07T11:17:06;24.21;53.74
76785;SHT30;66893;44.316;0.092;2023-05-07T11:19:52;24.26;53.71
76785;SHT30;66893;44.316;0.092;2023-05-07T11:22:44;24.26;53.62
76785;SHT30;66893;44.316;0.092;2023-05-07T11:25:09;24.32;53.60
76785;SHT30;66893;44.316;0.092;2023-05-07T11:27:35;24.35;53.53
76785;SHT30;66893;44.316;0.092;2023-05-07T11:30:01;24.40;53.48
76785;SHT30;66893;44.316;0.092;2023-05-07T11:32:29;24.46;53.38
76785;SHT30;66893;44.316;0.092;2023-05-07T11:34:56;24.56;53.27
76785;SHT30;66893;44.316;0.092;2023-05-07T11:37:23;24.63;53.21
76785;SHT30;66893;44.316;0.092;2023-05-07T11:39:49;24.72;53.07
76785;SHT30;66893;44.316;0.092;2023-05-07T11:42:30;24.80;52.94
76785;SHT30;66893;44.316;0.092;2023-05-07T11:44:56;24.88;52.82
76785;SHT30;66893;44.316;0.092;2023-05-07T11:47:21;24.88;52.72
76785;SHT30;66893;44.316;0.092;2023-05-07T11:49:52;24.86;52.71
76785;SHT30;66893;44.316;0.092;2023-05-07T11:52:19;24.86;52.68
76785;SHT30;66893;44.316;0.092;2023-05-07T11:54:55;24.86;52.66
76785;SHT30;66893;44.316;0.092;2023-05-07T11:57:22;24.87;52.63
76785;SHT30;66893;44.316;0.092;2023-05-07T11:59:47;24.90;52.62
76785;SHT30;66893;44.316;0.092;2023-05-07T12:02:17;24.91;52.56
76785;SHT30;66893;44.316;0.092;2023-05-07T12:04:43;24.98;52.47
76785;SHT30;66893;44.316;0.092;2023-05-07T12:07:12;24.97;52.38
76785;SHT30;66893;44.316;0.092;2023-05-07T12:09:39;25.03;52.33
76785;SHT30;66893;44.316;0.092;2023-05-07T12:12:05;25.06;52.27
76785;SHT30;66893;44.316;0.092;2023-05-07T12:14:31;25.07;52.22
76785;SHT30;66893;44.316;0.092;2023-05-07T12:17:00;25.03;52.16
76785;SHT30;66893;44.316;0.092;2023-05-07T12:19:29;25.08;52.15
76785;SHT30;66893;44.316;0.092;2023-05-07T12:21:56;25.11;52.06
76785;SHT30;66893;44.316;0.092;2023-05-07T12:24:22;25.18;52.02
76785;SHT30;66893;44.316;0.092;2023-05-07T12:26:48;25.29;51.92
76785;SHT30;66893;44.316;0.092;2023-05-07T12:29:13;25.36;51.79
76785;SHT30;66893;44.316;0.092;2023-05-07T12:31:42;25.46;51.67
76785;SHT30;66893;44.316;0.092;2023-05-07T12:34:08;25.56;51.52
76785;SHT30;66893;44.316;0.092;2023-05-07T12:36:39;25.59;51.39
76785;SHT30;66893;44.316;0.092;2023-05-07T12:39:06;25.61;51.40
76785;SHT30;66893;44.316;0.092;2023-05-07T12:41:36;25.63;51.35
76785;SHT30;66893;44.316;0.092;2023-05-07T12:44:04;25.63;51.27
76785;SHT30;66893;44.316;0.092;2023-05-07T12:46:30;25.66;51.17
76785;SHT30;66893;44.316;0.092;2023-05-07T12:48:56;25.67;51.19
76785;SHT30;66893;44.316;0.092;2023-05-07T12:51:22;25.72;51.09
76785;SHT30;66893;44.316;0.092;2023-05-07T12:53:47;25.73;51.16
76785;SHT30;66893;44.316;0.092;2023-05-07T12:56:15;25.76;51.06
76785;SHT30;66893;44.316;0.092;2023-05-07T12:58:41;25.74;50.72
76785;SHT30;66893;44.316;0.092;2023-05-07T13:01:07;25.72;50.68
76785;SHT30;66893;44.316;0.092;2023-05-07T13:03:36;25.72;50.78
76785;SHT30;66893;44.316;0.092;2023-05-07T13:06:06;25.74;50.78
76785;SHT30;66893;44.316;0.092;2023-05-07T13:08:37;25.76;50.68
76785;SHT30;66893;44.316;0.092;2023-05-07T13:11:07;25.81;50.58
76785;SHT30;66893;44.316;0.092;2023-05-07T13:13:34;25.84;50.52
76785;SHT30;66893;44.316;0.092;2023-05-07T13:16:01;25.91;50.47
76785;SHT30;66893;44.316;0.092;2023-05-07T13:18:27;25.94;50.35
76785;SHT30;66893;44.316;0.092;2023-05-07T13:20:55;25.96;50.28
76785;SHT30;66893;44.316;0.092;2023-05-07T13:23:21;25.97;50.26
76785;SHT30;66893;44.316;0.092;2023-05-07T13:25:47;25.98;50.14
76785;SHT30;66893;44.316;0.092;2023-05-07T13:28:12;25.97;50.14
76785;SHT30;66893;44.316;0.092;2023-05-07T13:30:38;25.98;50.05
76785;SHT30;66893;44.316;0.092;2023-05-07T13:33:04;25.97;50.05
76785;SHT30;66893;44.316;0.092;2023-05-07T13:35:29;25.97;50.08
76785;SHT30;66893;44.316;0.092;2023-05-07T13:37:55;25.96;50.03
76785;SHT30;66893;44.316;0.092;2023-05-07T13:40:21;25.98;49.96
76785;SHT30;66893;44.316;0.092;2023-05-07T13:42:47;26.00;49.96
76785;SHT30;66893;44.316;0.092;2023-05-07T13:45:13;26.04;49.89
76785;SHT30;66893;44.316;0.092;2023-05-07T13:47:40;26.05;49.85
76785;SHT30;66893;44.316;0.092;2023-05-07T13:50:07;26.11;49.78
76785;SHT30;66893;44.316;0.092;2023-05-07T13:52:33;26.13;49.71
76785;SHT30;66893;44.316;0.092;2023-05-07T13:54:58;26.14;49.67
76785;SHT30;66893;44.316;0.092;2023-05-07T13:57:24;26.14;49.68
76785;SHT30;66893;44.316;0.092;2023-05-07T13:59:50;26.17;49.69
76785;SHT30;66893;44.316;0.092;2023-05-07T14:02:15;26.17;49.64
76785;SHT30;66893;44.316;0.092;2023-05-07T14:04:41;26.17;49.57
76785;SHT30;66893;44.316;0.092;2023-05-07T14:07:06;26.20;49.55
76785;SHT30;66893;44.316;0.092;2023-05-07T14:09:32;26.22;49.46
76785;SHT30;66893;44.316;0.092;2023-05-07T14:11:58;26.27;49.41
76785;SHT30;66893;44.316;0.092;2023-05-07T14:14:24;26.29;49.42
76785;SHT30;66893;44.316;0.092;2023-05-07T14:16:49;26.28;49.29
76785;SHT30;66893;44.316;0.092;2023-05-07T14:19:15;26.28;49.34
76785;SHT30;66893;44.316;0.092;2023-05-07T14:21:41;26.29;49.30
76785;SHT30;66893;44.316;0.092;2023-05-07T14:24:07;26.41;49.16
76785;SHT30;66893;44.316;0.092;2023-05-07T14:26:33;26.42;49.16
76785;SHT30;66893;44.316;0.092;2023-05-07T14:28:59;26.49;49.08
76785;SHT30;66893;44.316;0.092;2023-05-07T14:31:25;26.55;48.99
76785;SHT30;66893;44.316;0.092;2023-05-07T14:33:50;26.63;48.95
76785;SHT30;66893;44.316;0.092;2023-05-07T14:36:17;26.73;48.75
76785;SHT30;66893;44.316;0.092;2023-05-07T14:38:45;26.79;48.66
76785;SHT30;66893;44.316;0.092;2023-05-07T14:41:11;26.86;48.57
76785;SHT30;66893;44.316;0.092;2023-05-07T14:43:36;26.91;48.48
76785;SHT30;66893;44.316;0.092;2023-05-07T14:46:02;26.97;48.35
76785;SHT30;66893;44.316;0.092;2023-05-07T14:48:27;27.03;48.27
76785;SHT30;66893;44.316;0.092;2023-05-07T14:50:53;27.11;48.18
76785;SHT30;66893;44.316;0.092;2023-05-07T14:53:18;27.21;48.07
76785;SHT30;66893;44.316;0.092;2023-05-07T14:55:43;27.24;47.98
76785;SHT30;66893;44.316;0.092;2023-05-07T14:58:10;27.30;47.92
76785;SHT30;66893;44.316;0.092;2023-05-07T15:00:36;27.35;47.83
76785;SHT30;66893;44.316;0.092;2023-05-07T15:03:06;27.37;47.74
76785;SHT30;66893;44.316;0.092;2023-05-07T15:05:33;27.35;47.76
76785;SHT30;66893;44.316;0.092;2023-05-07T15:07:58;27.39;47.70
76785;SHT30;66893;44.316;0.092;2023-05-07T15:10:24;27.37;47.67
76785;SHT30;66893;44.316;0.092;2023-05-07T15:12:49;27.38;47.68
76785;SHT30;66893;44.316;0.092;2023-05-07T15:15:15;27.38;47.64
76785;SHT30;66893;44.316;0.092;2023-05-07T15:17:41;27.42;47.59
76785;SHT30;66893;44.316;0.092;2023-05-07T15:20:07;27.46;47.53
76785;SHT30;66893;44.316;0.092;2023-05-07T15:22:33;27.51;47.48
76785;SHT30;66893;44.316;0.092;2023-05-07T15:24:59;27.52;47.45
76785;SHT30;66893;44.316;0.092;2023-05-07T15:27:24;27.54;47.34
76785;SHT30;66893;44.316;0.092;2023-05-07T15:29:50;27.59;47.33
76785;SHT30;66893;44.316;0.092;2023-05-07T15:32:15;27.59;47.29
76785;SHT30;66893;44.316;0.092;2023-05-07T15:34:41;27.63;47.26
76785;SHT30;66893;44.316;0.092;2023-05-07T15:37:07;27.72;47.22